sensor_id;sensor_type;location;lat;lon;timestamp;temperature;humidity
41756;DHT22;27435;48.480;9.258;2022-08-07T00:01:54;14.90;99.00
41756;DHT22;27435;48.480;9.258;2022-08-07T00:04:20;14.70;99.00
41756;DHT22;27435;48.480;9.258;2022-08-07T00:06:45;14.70;99.00
41756;DHT22;27435;48.480;9.258;2022-08-07T00:09:11;14.60;99.00
41756;DHT22;27435;48.480;9.258;2022-08-07T00:11:37;14.40;99.00
41756;DHT22;27435;48.480;9.258;2022-08-07T00:14:03;14.40;99.00
41756;DHT22;27435;48.480;9.258;2022-08-07T00:16:28;14.40;99.00
41756;DHT22;27435;48.480;9.258;2022-08-07T00:18:54;14.40;99.00
41756;DHT22;27435;48.480;9.258;2022-08-07T00:21:19;14.50;99.00
41756;DHT22;27435;48.480;9.258;2022-08-07T00:23:46;14.40;99.00
41756;DHT22;27435;48.480;9.258;2022-08-07T00:26:11;14.20;99.00
41756;DHT22;27435;48.480;9.258;2022-08-07T00:28:37;14.10;99.00
41756;DHT22;27435;48.480;9.258;2022-08-07T00:31:07;14.10;99.00
41756;DHT22;27435;48.480;9.258;2022-08-07T00:33:35;14.00;99.00
41756;DHT22;27435;48.480;9.258;2022-08-07T00:36:01;14.00;99.00
41756;DHT22;27435;48.480;9.258;2022-08-07T00:38:27;14.00;99.00
41756;DHT22;27435;48.480;9.258;2022-08-07T00:40:53;14.00;99.00
41756;DHT22;27435;48.480;9.258;2022-08-07T00:43:19;13.90;99.00
41756;DHT22;27435;48.480;9.258;2022-08-07T00:45:44;14.00;99.00
41756;DHT22;27435;48.480;9.258;2022-08-07T00:48:10;14.10;99.00
41756;DHT22;27435;48.480;9.258;2022-08-07T00:50:37;14.10;99.00
41756;DHT22;27435;48.480;9.258;2022-08-07T00:53:03;14.10;99.00
41756;DHT22;27435;48.480;9.258;2022-08-07T00:55:29;14.10;99.00
41756;DHT22;27435;48.480;9.258;2022-08-07T00:57:55;14.10;99.00
41756;DHT22;27435;48.480;9.258;2022-08-07T01:00:21;14.10;99.00
41756;DHT22;27435;48.480;9.258;2022-08-07T01:02:47;14.20;99.00
41756;DHT22;27435;48.480;9.258;2022-08-07T01:05:13;14.20;99.00
41756;DHT22;27435;48.480;9.258;2022-08-07T01:07:40;13.90;99.00
41756;DHT22;27435;48.480;9.258;2022-08-07T01:10:07;14.00;99.00
41756;DHT22;27435;48.480;9.258;2022-08-07T01:12:34;14.00;99.00
41756;DHT22;27435;48.480;9.258;2022-08-07T01:14:59;13.90;99.00
41756;DHT22;27435;48.480;9.258;2022-08-07T01:17:27;13.90;99.00
41756;DHT22;27435;48.480;9.258;2022-08-07T01:19:57;13.90;99.00
41756;DHT22;27435;48.480;9.258;2022-08-07T01:22:26;13.90;99.00
41756;DHT22;27435;48.480;9.258;2022-08-07T01:24:52;14.00;99.00
41756;DHT22;27435;48.480;9.258;2022-08-07T01:27:18;13.90;99.00
41756;DHT22;27435;48.480;9.258;2022-08-07T01:29:44;14.00;99.00
41756;DHT22;27435;48.480;9.258;2022-08-07T01:32:09;14.00;99.00
41756;DHT22;27435;48.480;9.258;2022-08-07T01:34:35;14.00;99.00
41756;DHT22;27435;48.480;9.258;2022-08-07T01:37:01;14.00;99.00
41756;DHT22;27435;48.480;9.258;2022-08-07T01:39:27;13.90;99.00
41756;DHT22;27435;48.480;9.258;2022-08-07T01:41:53;13.90;99.00
41756;DHT22;27435;48.480;9.258;2022-08-07T01:44:19;13.90;99.00
41756;DHT22;27435;48.480;9.258;2022-08-07T01:46:45;13.80;99.00
41756;DHT22;27435;48.480;9.258;2022-08-07T01:49:11;13.80;99.00
41756;DHT22;27435;48.480;9.258;2022-08-07T01:51:39;13.60;99.00
41756;DHT22;27435;48.480;9.258;2022-08-07T01:54:09;13.50;99.00
41756;DHT22;27435;48.480;9.258;2022-08-07T01:56:44;13.50;99.00
41756;DHT22;27435;48.480;9.258;2022-08-07T01:59:13;13.50;99.00
41756;DHT22;27435;48.480;9.258;2022-08-07T02:01:44;13.50;99.00
41756;DHT22;27435;48.480;9.258;2022-08-07T02:04:22;13.50;99.00
41756;DHT22;27435;48.480;9.258;2022-08-07T02:06:49;13.60;99.00
41756;DHT22;27435;48.480;9.258;2022-08-07T02:09:17;13.70;99.00
41756;DHT22;27435;48.480;9.258;2022-08-07T02:11:48;13.70;99.00
41756;DHT22;27435;48.480;9.258;2022-08-07T02:14:15;13.60;99.00
41756;DHT22;27435;48.480;9.258;2022-08-07T02:16:44;13.60;99.00
41756;DHT22;27435;48.480;9.258;2022-08-07T02:19:12;13.60;99.00
41756;DHT22;27435;48.480;9.258;2022-08-07T02:21:40;13.60;99.00
41756;DHT22;27435;48.480;9.258;2022-08-07T02:24:06;13.60;99.00
41756;DHT22;27435;48.480;9.258;2022-08-07T02:26:35;13.50;99.00
41756;DHT22;27435;48.480;9.258;2022-08-07T02:29:04;13.60;99.00
41756;DHT22;27435;48.480;9.258;2022-08-07T02:31:31;13.50;99.00
41756;DHT22;27435;48.480;9.258;2022-08-07T02:34:04;13.40;99.00
41756;DHT22;27435;48.480;9.258;2022-08-07T02:36:31;13.40;99.00
41756;DHT22;27435;48.480;9.258;2022-08-07T02:38:58;13.30;99.00
41756;DHT22;27435;48.480;9.258;2022-08-07T02:41:26;13.30;99.00
41756;DHT22;27435;48.480;9.258;2022-08-07T02:43:53;13.30;99.00
41756;DHT22;27435;48.480;9.258;2022-08-07T02:46:22;13.30;99.00
41756;DHT22;27435;48.480;9.258;2022-08-07T02:48:49;13.30;99.00
41756;DHT22;27435;48.480;9.258;2022-08-07T02:51:18;13.30;99.00
41756;DHT22;27435;48.480;9.258;2022-08-07T02:53:45;13.30;99.00
41756;DHT22;27435;48.480;9.258;2022-08-07T02:56:20;13.30;99.00
41756;DHT22;27435;48.480;9.258;2022-08-07T02:58:46;13.20;99.00
41756;DHT22;27435;48.480;9.258;2022-08-07T03:01:14;13.10;99.00
41756;DHT22;27435;48.480;9.258;2022-08-07T03:03:40;13.00;99.00
41756;DHT22;27435;48.480;9.258;2022-08-07T03:06:07;13.10;99.00
41756;DHT22;27435;48.480;9.258;2022-08-07T03:08:33;13.00;99.00
41756;DHT22;27435;48.480;9.258;2022-08-07T03:10:59;13.10;99.00
41756;DHT22;27435;48.480;9.258;2022-08-07T03:13:25;13.00;99.00
41756;DHT22;27435;48.480;9.258;2022-08-07T03:15:51;12.90;99.00
41756;DHT22;27435;48.480;9.258;2022-08-07T03:18:18;12.90;99.00
41756;DHT22;27435;48.480;9.258;2022-08-07T03:20:45;12.80;99.00
41756;DHT22;27435;48.480;9.258;2022-08-07T03:23:11;12.80;99.00
41756;DHT22;27435;48.480;9.258;2022-08-07T03:25:39;12.80;99.00
41756;DHT22;27435;48.480;9.258;2022-08-07T03:28:11;12.80;99.00
41756;DHT22;27435;48.480;9.258;2022-08-07T03:30:38;12.80;99.00
41756;DHT22;27435;48.480;9.258;2022-08-07T03:33:06;12.80;99.00
41756;DHT22;27435;48.480;9.258;2022-08-07T03:35:33;12.80;99.00
41756;DHT22;27435;48.480;9.258;2022-08-07T03:38:01;12.80;99.00
41756;DHT22;27435;48.480;9.258;2022-08-07T03:40:28;12.70;99.00
41756;DHT22;27435;48.480;9.258;2022-08-07T03:42:54;12.70;99.00
41756;DHT22;27435;48.480;9.258;2022-08-07T03:45:22;12.70;99.00
41756;DHT22;27435;48.480;9.258;2022-08-07T03:47:49;12.70;99.00
41756;DHT22;27435;48.480;9.258;2022-08-07T03:50:16;12.70;99.00
41756;DHT22;27435;48.480;9.258;2022-08-07T03:52:44;12.60;99.00
41756;DHT22;27435;48.480;9.258;2022-08-07T03:55:11;12.60;99.00
41756;DHT22;27435;48.480;9.258;2022-08-07T03:57:37;12.70;99.00
41756;DHT22;27435;48.480;9.258;2022-08-07T04:00:03;12.70;99.00
41756;DHT22;27435;48.480;9.258;2022-08-07T04:02:30;12.60;99.00
41756;DHT22;27435;48.480;9.258;2022-08-07T04:04:56;12.50;99.00
41756;DHT22;27435;48.480;9.258;2022-08-07T04:07:21;12.40;99.00
41756;DHT22;27435;48.480;9.258;2022-08-07T04:09:48;12.50;99.00
41756;DHT22;27435;48.480;9.258;2022-08-07T04:12:14;12.50;99.00
41756;DHT22;27435;48.480;9.258;2022-08-07T04:14:41;12.60;99.00
41756;DHT22;27435;48.480;9.258;2022-08-07T04:17:08;12.60;99.00
41756;DHT22;27435;48.480;9.258;2022-08-07T04:19:34;12.60;99.00
41756;DHT22;27435;48.480;9.258;2022-08-07T04:22:01;12.80;99.00
41756;DHT22;27435;48.480;9.258;2022-08-07T04:24:27;12.70;99.00
41756;DHT22;27435;48.480;9.258;2022-08-07T04:26:53;12.70;99.00
41756;DHT22;27435;48.480;9.258;2022-08-07T04:29:19;12.70;99.00
41756;DHT22;27435;48.480;9.258;2022-08-07T04:31:45;12.50;99.00
41756;DHT22;27435;48.480;9.258;2022-08-07T04:34:11;12.60;99.00
41756;DHT22;27435;48.480;9.258;2022-08-07T04:36:37;12.80;99.00
41756;DHT22;27435;48.480;9.258;2022-08-07T04:39:04;12.80;99.00
41756;DHT22;27435;48.480;9.258;2022-08-07T04:41:30;12.80;99.00
41756;DHT22;27435;48.480;9.258;2022-08-07T04:43:57;12.70;99.00
41756;DHT22;27435;48.480;9.258;2022-08-07T04:57:06;12.60;99.00
41756;DHT22;27435;48.480;9.258;2022-08-07T05:08:07;12.80;99.00
41756;DHT22;27435;48.480;9.258;2022-08-07T05:10:40;12.80;99.00
41756;DHT22;27435;48.480;9.258;2022-08-07T05:13:18;12.80;99.00
41756;DHT22;27435;48.480;9.258;2022-08-07T05:15:49;12.90;99.00
41756;DHT22;27435;48.480;9.258;2022-08-07T05:18:27;12.80;99.00
41756;DHT22;27435;48.480;9.258;2022-08-07T05:20:56;12.70;99.00
41756;DHT22;27435;48.480;9.258;2022-08-07T05:23:41;12.70;99.00
41756;DHT22;27435;48.480;9.258;2022-08-07T05:26:15;12.80;99.00
41756;DHT22;27435;48.480;9.258;2022-08-07T05:28:42;12.90;99.00
41756;DHT22;27435;48.480;9.258;2022-08-07T05:31:11;12.90;99.00
41756;DHT22;27435;48.480;9.258;2022-08-07T05:33:38;13.00;99.00
41756;DHT22;27435;48.480;9.258;2022-08-07T05:36:06;13.20;99.00
41756;DHT22;27435;48.480;9.258;2022-08-07T05:38:33;13.30;99.00
41756;DHT22;27435;48.480;9.258;2022-08-07T05:41:01;13.30;99.00
41756;DHT22;27435;48.480;9.258;2022-08-07T05:43:27;13.30;99.00
41756;DHT22;27435;48.480;9.258;2022-08-07T05:45:54;13.40;99.00
41756;DHT22;27435;48.480;9.258;2022-08-07T05:48:21;13.50;99.00
41756;DHT22;27435;48.480;9.258;2022-08-07T05:50:46;13.60;99.00
41756;DHT22;27435;48.480;9.258;2022-08-07T05:53:12;13.70;99.00
41756;DHT22;27435;48.480;9.258;2022-08-07T05:55:39;13.70;99.00
41756;DHT22;27435;48.480;9.258;2022-08-07T05:58:06;13.80;99.00
41756;DHT22;27435;48.480;9.258;2022-08-07T06:00:34;13.90;99.00
41756;DHT22;27435;48.480;9.258;2022-08-07T06:03:04;13.90;99.00
41756;DHT22;27435;48.480;9.258;2022-08-07T06:05:31;14.10;99.00
41756;DHT22;27435;48.480;9.258;2022-08-07T06:07:58;14.30;99.00
41756;DHT22;27435;48.480;9.258;2022-08-07T06:10:26;14.40;99.00
41756;DHT22;27435;48.480;9.258;2022-08-07T06:12:52;14.70;99.00
41756;DHT22;27435;48.480;9.258;2022-08-07T06:15:18;15.00;99.00
41756;DHT22;27435;48.480;9.258;2022-08-07T06:17:44;15.30;99.00
41756;DHT22;27435;48.480;9.258;2022-08-07T06:20:10;15.50;99.00
41756;DHT22;27435;48.480;9.258;2022-08-07T06:22:41;16.00;99.00
41756;DHT22;27435;48.480;9.258;2022-08-07T06:25:07;16.00;98.00
41756;DHT22;27435;48.480;9.258;2022-08-07T06:27:33;16.20;98.30
41756;DHT22;27435;48.480;9.258;2022-08-07T06:29:59;16.60;94.70
41756;DHT22;27435;48.480;9.258;2022-08-07T06:32:25;16.30;95.40
41756;DHT22;27435;48.480;9.258;2022-08-07T06:34:51;16.30;96.50
41756;DHT22;27435;48.480;9.258;2022-08-07T06:37:17;16.30;95.70
41756;DHT22;27435;48.480;9.258;2022-08-07T06:39:43;16.40;96.10
41756;DHT22;27435;48.480;9.258;2022-08-07T06:42:32;16.60;95.70
41756;DHT22;27435;48.480;9.258;2022-08-07T06:45:04;16.40;95.80
41756;DHT22;27435;48.480;9.258;2022-08-07T06:47:30;16.70;95.30
41756;DHT22;27435;48.480;9.258;2022-08-07T06:49:57;16.80;94.30
41756;DHT22;27435;48.480;9.258;2022-08-07T06:52:25;16.90;94.30
41756;DHT22;27435;48.480;9.258;2022-08-07T06:54:52;17.50;91.70
41756;DHT22;27435;48.480;9.258;2022-08-07T06:57:19;17.90;88.80
41756;DHT22;27435;48.480;9.258;2022-08-07T06:59:46;17.70;90.00
41756;DHT22;27435;48.480;9.258;2022-08-07T07:02:20;17.70;90.20
41756;DHT22;27435;48.480;9.258;2022-08-07T07:04:47;17.90;90.60
41756;DHT22;27435;48.480;9.258;2022-08-07T07:07:14;18.10;89.80
41756;DHT22;27435;48.480;9.258;2022-08-07T07:09:49;18.20;88.90
41756;DHT22;27435;48.480;9.258;2022-08-07T07:17:21;18.30;88.50
41756;DHT22;27435;48.480;9.258;2022-08-07T07:19:53;17.90;90.60
41756;DHT22;27435;48.480;9.258;2022-08-07T07:22:20;18.00;91.20
41756;DHT22;27435;48.480;9.258;2022-08-07T07:24:47;18.00;91.00
41756;DHT22;27435;48.480;9.258;2022-08-07T07:27:16;18.00;91.80
41756;DHT22;27435;48.480;9.258;2022-08-07T07:29:47;18.30;89.60
41756;DHT22;27435;48.480;9.258;2022-08-07T07:32:14;18.40;90.40
41756;DHT22;27435;48.480;9.258;2022-08-07T07:34:46;18.50;89.70
41756;DHT22;27435;48.480;9.258;2022-08-07T07:37:13;18.80;88.50
41756;DHT22;27435;48.480;9.258;2022-08-07T07:39:41;18.80;88.90
41756;DHT22;27435;48.480;9.258;2022-08-07T07:42:08;18.70;87.50
41756;DHT22;27435;48.480;9.258;2022-08-07T07:44:38;18.70;86.70
41756;DHT22;27435;48.480;9.258;2022-08-07T07:47:06;18.70;86.60
41756;DHT22;27435;48.480;9.258;2022-08-07T07:49:35;18.60;87.40
41756;DHT22;27435;48.480;9.258;2022-08-07T07:52:02;18.60;87.50
41756;DHT22;27435;48.480;9.258;2022-08-07T07:54:29;18.40;88.10
41756;DHT22;27435;48.480;9.258;2022-08-07T07:56:56;18.70;87.30
41756;DHT22;27435;48.480;9.258;2022-08-07T07:59:24;18.90;86.30
41756;DHT22;27435;48.480;9.258;2022-08-07T08:01:51;18.90;85.40
41756;DHT22;27435;48.480;9.258;2022-08-07T08:04:19;18.90;85.20
41756;DHT22;27435;48.480;9.258;2022-08-07T08:06:46;18.90;85.90
41756;DHT22;27435;48.480;9.258;2022-08-07T08:09:15;19.20;84.90
41756;DHT22;27435;48.480;9.258;2022-08-07T08:11:42;19.30;85.00
41756;DHT22;27435;48.480;9.258;2022-08-07T08:14:08;19.40;83.90
41756;DHT22;27435;48.480;9.258;2022-08-07T08:16:38;19.30;84.50
41756;DHT22;27435;48.480;9.258;2022-08-07T08:19:09;19.40;84.60
41756;DHT22;27435;48.480;9.258;2022-08-07T08:21:39;19.20;83.90
41756;DHT22;27435;48.480;9.258;2022-08-07T08:24:28;19.40;84.10
41756;DHT22;27435;48.480;9.258;2022-08-07T08:27:13;19.60;84.20
41756;DHT22;27435;48.480;9.258;2022-08-07T08:29:53;19.70;82.70
41756;DHT22;27435;48.480;9.258;2022-08-07T08:32:23;19.90;80.60
41756;DHT22;27435;48.480;9.258;2022-08-07T08:34:50;20.00;81.30
41756;DHT22;27435;48.480;9.258;2022-08-07T08:37:18;20.20;76.70
41756;DHT22;27435;48.480;9.258;2022-08-07T08:39:44;20.50;77.40
41756;DHT22;27435;48.480;9.258;2022-08-07T08:42:18;20.60;78.00
41756;DHT22;27435;48.480;9.258;2022-08-07T08:50:25;21.10;72.80
41756;DHT22;27435;48.480;9.258;2022-08-07T08:53:15;21.10;72.40
41756;DHT22;27435;48.480;9.258;2022-08-07T08:56:03;21.20;70.80
41756;DHT22;27435;48.480;9.258;2022-08-07T09:01:27;21.20;70.70
41756;DHT22;27435;48.480;9.258;2022-08-07T09:07:11;21.40;67.80
41756;DHT22;27435;48.480;9.258;2022-08-07T09:28:57;22.10;65.70
41756;DHT22;27435;48.480;9.258;2022-08-07T09:31:43;22.10;64.90
41756;DHT22;27435;48.480;9.258;2022-08-07T09:34:24;21.90;64.90
41756;DHT22;27435;48.480;9.258;2022-08-07T09:36:58;22.00;65.30
41756;DHT22;27435;48.480;9.258;2022-08-07T09:45:41;22.20;63.70
41756;DHT22;27435;48.480;9.258;2022-08-07T09:53:33;22.00;63.70
41756;DHT22;27435;48.480;9.258;2022-08-07T10:05:20;22.20;62.90
41756;DHT22;27435;48.480;9.258;2022-08-07T10:08:03;21.90;63.80
41756;DHT22;27435;48.480;9.258;2022-08-07T10:11:00;22.10;64.40
41756;DHT22;27435;48.480;9.258;2022-08-07T10:19:21;22.70;63.30
41756;DHT22;27435;48.480;9.258;2022-08-07T10:22:31;22.80;61.80
41756;DHT22;27435;48.480;9.258;2022-08-07T10:31:29;22.40;62.60
41756;DHT22;27435;48.480;9.258;2022-08-07T10:34:11;22.50;62.30
41756;DHT22;27435;48.480;9.258;2022-08-07T10:42:41;22.50;61.20
41756;DHT22;27435;48.480;9.258;2022-08-07T10:58:54;23.30;60.80
41756;DHT22;27435;48.480;9.258;2022-08-07T11:04:23;23.40;59.80
41756;DHT22;27435;48.480;9.258;2022-08-07T11:07:00;23.60;58.80
41756;DHT22;27435;48.480;9.258;2022-08-07T11:09:33;23.30;59.20
41756;DHT22;27435;48.480;9.258;2022-08-07T11:12:05;23.30;58.90
41756;DHT22;27435;48.480;9.258;2022-08-07T11:14:46;23.40;59.20
41756;DHT22;27435;48.480;9.258;2022-08-07T11:17:20;23.60;58.60
41756;DHT22;27435;48.480;9.258;2022-08-07T11:20:13;24.00;58.30
41756;DHT22;27435;48.480;9.258;2022-08-07T11:25:36;24.10;57.20
41756;DHT22;27435;48.480;9.258;2022-08-07T11:28:34;24.00;57.40
41756;DHT22;27435;48.480;9.258;2022-08-07T11:31:18;24.20;56.10
41756;DHT22;27435;48.480;9.258;2022-08-07T11:33:56;23.80;56.60
41756;DHT22;27435;48.480;9.258;2022-08-07T11:50:23;24.70;55.60
41756;DHT22;27435;48.480;9.258;2022-08-07T11:58:27;25.00;54.00
41756;DHT22;27435;48.480;9.258;2022-08-07T12:01:01;25.10;52.50
41756;DHT22;27435;48.480;9.258;2022-08-07T12:06:51;24.80;52.40
41756;DHT22;27435;48.480;9.258;2022-08-07T12:09:33;24.80;53.50
41756;DHT22;27435;48.480;9.258;2022-08-07T12:14:33;24.90;53.30
41756;DHT22;27435;48.480;9.258;2022-08-07T12:17:11;25.00;52.40
41756;DHT22;27435;48.480;9.258;2022-08-07T12:27:48;25.30;51.70
41756;DHT22;27435;48.480;9.258;2022-08-07T12:30:16;25.60;51.20
41756;DHT22;27435;48.480;9.258;2022-08-07T12:33:03;25.60;51.10
41756;DHT22;27435;48.480;9.258;2022-08-07T12:35:31;25.60;51.60
41756;DHT22;27435;48.480;9.258;2022-08-07T12:37:58;25.90;51.10
41756;DHT22;27435;48.480;9.258;2022-08-07T12:40:28;26.00;49.90
41756;DHT22;27435;48.480;9.258;2022-08-07T12:42:58;26.00;49.60
41756;DHT22;27435;48.480;9.258;2022-08-07T12:45:36;26.00;51.00
41756;DHT22;27435;48.480;9.258;2022-08-07T12:48:13;26.10;49.80
41756;DHT22;27435;48.480;9.258;2022-08-07T12:50:49;26.20;49.90
41756;DHT22;27435;48.480;9.258;2022-08-07T12:53:36;26.10;50.40
41756;DHT22;27435;48.480;9.258;2022-08-07T12:58:52;26.00;50.50
41756;DHT22;27435;48.480;9.258;2022-08-07T13:12:22;26.40;50.10
41756;DHT22;27435;48.480;9.258;2022-08-07T13:15:09;26.60;50.10
41756;DHT22;27435;48.480;9.258;2022-08-07T13:17:45;26.60;50.40
41756;DHT22;27435;48.480;9.258;2022-08-07T13:20:22;26.70;50.10
41756;DHT22;27435;48.480;9.258;2022-08-07T13:23:03;26.70;50.20
41756;DHT22;27435;48.480;9.258;2022-08-07T13:25:55;26.50;50.40
41756;DHT22;27435;48.480;9.258;2022-08-07T13:28:29;26.60;50.30
41756;DHT22;27435;48.480;9.258;2022-08-07T13:31:09;26.80;49.90
41756;DHT22;27435;48.480;9.258;2022-08-07T13:36:31;26.80;49.70
41756;DHT22;27435;48.480;9.258;2022-08-07T13:39:25;27.20;49.30
41756;DHT22;27435;48.480;9.258;2022-08-07T13:41:53;27.90;47.80
41756;DHT22;27435;48.480;9.258;2022-08-07T13:44:22;27.70;48.70
41756;DHT22;27435;48.480;9.258;2022-08-07T13:46:51;27.80;48.00
41756;DHT22;27435;48.480;9.258;2022-08-07T13:49:21;27.70;48.70
41756;DHT22;27435;48.480;9.258;2022-08-07T13:51:48;27.50;48.80
41756;DHT22;27435;48.480;9.258;2022-08-07T13:54:15;27.60;48.60
41756;DHT22;27435;48.480;9.258;2022-08-07T13:56:43;27.80;48.60
41756;DHT22;27435;48.480;9.258;2022-08-07T13:59:18;28.00;48.50
41756;DHT22;27435;48.480;9.258;2022-08-07T14:01:50;27.60;48.50
41756;DHT22;27435;48.480;9.258;2022-08-07T14:04:17;27.60;48.50
41756;DHT22;27435;48.480;9.258;2022-08-07T14:06:46;28.10;48.00
41756;DHT22;27435;48.480;9.258;2022-08-07T14:09:20;28.00;47.70
41756;DHT22;27435;48.480;9.258;2022-08-07T14:12:00;27.90;48.40
41756;DHT22;27435;48.480;9.258;2022-08-07T14:14:30;28.10;48.50
41756;DHT22;27435;48.480;9.258;2022-08-07T14:17:03;28.50;47.80
41756;DHT22;27435;48.480;9.258;2022-08-07T14:19:36;28.60;47.00
41756;DHT22;27435;48.480;9.258;2022-08-07T14:22:06;28.10;47.90
41756;DHT22;27435;48.480;9.258;2022-08-07T14:24:40;28.10;47.80
41756;DHT22;27435;48.480;9.258;2022-08-07T14:27:11;28.00;48.10
41756;DHT22;27435;48.480;9.258;2022-08-07T14:29:40;28.30;47.70
41756;DHT22;27435;48.480;9.258;2022-08-07T14:32:10;28.30;47.40
41756;DHT22;27435;48.480;9.258;2022-08-07T14:34:42;28.40;47.20
41756;DHT22;27435;48.480;9.258;2022-08-07T14:37:09;29.50;45.40
41756;DHT22;27435;48.480;9.258;2022-08-07T14:39:37;28.80;46.10
41756;DHT22;27435;48.480;9.258;2022-08-07T14:42:05;28.30;47.30
41756;DHT22;27435;48.480;9.258;2022-08-07T14:44:32;27.90;48.40
41756;DHT22;27435;48.480;9.258;2022-08-07T14:46:59;28.20;47.20
41756;DHT22;27435;48.480;9.258;2022-08-07T14:49:33;28.70;47.10
41756;DHT22;27435;48.480;9.258;2022-08-07T14:52:00;28.70;46.60
41756;DHT22;27435;48.480;9.258;2022-08-07T14:54:29;28.80;46.50
41756;DHT22;27435;48.480;9.258;2022-08-07T14:56:56;28.20;47.20
41756;DHT22;27435;48.480;9.258;2022-08-07T14:59:24;28.10;47.70
41756;DHT22;27435;48.480;9.258;2022-08-07T15:01:52;28.50;47.00
41756;DHT22;27435;48.480;9.258;2022-08-07T15:04:19;28.90;46.10
41756;DHT22;27435;48.480;9.258;2022-08-07T15:06:48;28.40;47.20
41756;DHT22;27435;48.480;9.258;2022-08-07T15:09:15;28.40;46.70
41756;DHT22;27435;48.480;9.258;2022-08-07T15:11:49;28.40;46.80
41756;DHT22;27435;48.480;9.258;2022-08-07T15:14:23;28.60;47.10
41756;DHT22;27435;48.480;9.258;2022-08-07T15:16:55;29.00;46.20
41756;DHT22;27435;48.480;9.258;2022-08-07T15:19:30;28.70;45.80
41756;DHT22;27435;48.480;9.258;2022-08-07T15:21:58;28.90;45.40
41756;DHT22;27435;48.480;9.258;2022-08-07T15:24:33;28.80;45.30
41756;DHT22;27435;48.480;9.258;2022-08-07T15:27:07;28.90;45.70
41756;DHT22;27435;48.480;9.258;2022-08-07T15:29:38;29.00;45.10
41756;DHT22;27435;48.480;9.258;2022-08-07T15:32:06;29.00;45.80
41756;DHT22;27435;48.480;9.258;2022-08-07T15:34:36;29.30;44.90
41756;DHT22;27435;48.480;9.258;2022-08-07T15:37:04;29.50;44.10
41756;DHT22;27435;48.480;9.258;2022-08-07T15:39:36;29.50;44.20
41756;DHT22;27435;48.480;9.258;2022-08-07T15:42:05;29.50;43.80
41756;DHT22;27435;48.480;9.258;2022-08-07T15:44:44;28.80;44.80
41756;DHT22;27435;48.480;9.258;2022-08-07T15:47:12;29.60;43.40
41756;DHT22;27435;48.480;9.258;2022-08-07T15:49:39;30.30;41.60
41756;DHT22;27435;48.480;9.258;2022-08-07T15:52:07;29.80;43.10
41756;DHT22;27435;48.480;9.258;2022-08-07T15:54:38;30.00;43.10
41756;DHT22;27435;48.480;9.258;2022-08-07T15:57:14;30.90;41.30
41756;DHT22;27435;48.480;9.258;2022-08-07T15:59:45;30.60;41.70
41756;DHT22;27435;48.480;9.258;2022-08-07T16:02:23;30.00;42.20
41756;DHT22;27435;48.480;9.258;2022-08-07T16:04:58;29.60;41.80
41756;DHT22;27435;48.480;9.258;2022-08-07T16:07:29;29.00;43.30
41756;DHT22;27435;48.480;9.258;2022-08-07T16:10:07;29.10;43.30
41756;DHT22;27435;48.480;9.258;2022-08-07T16:15:49;29.00;43.20
41756;DHT22;27435;48.480;9.258;2022-08-07T16:21:11;29.40;43.20
41756;DHT22;27435;48.480;9.258;2022-08-07T16:24:13;29.60;42.00
41756;DHT22;27435;48.480;9.258;2022-08-07T16:27:02;30.20;40.70
41756;DHT22;27435;48.480;9.258;2022-08-07T16:32:21;31.00;39.80
41756;DHT22;27435;48.480;9.258;2022-08-07T16:34:51;30.90;39.90
41756;DHT22;27435;48.480;9.258;2022-08-07T16:51:48;28.30;43.60
41756;DHT22;27435;48.480;9.258;2022-08-07T16:55:11;28.60;43.50
41756;DHT22;27435;48.480;9.258;2022-08-07T16:57:38;27.90;44.50
41756;DHT22;27435;48.480;9.258;2022-08-07T17:00:12;27.30;45.90
41756;DHT22;27435;48.480;9.258;2022-08-07T17:08:42;28.20;43.40
41756;DHT22;27435;48.480;9.258;2022-08-07T17:11:13;28.10;43.50
41756;DHT22;27435;48.480;9.258;2022-08-07T17:13:56;27.40;44.90
41756;DHT22;27435;48.480;9.258;2022-08-07T17:16:48;26.90;45.50
41756;DHT22;27435;48.480;9.258;2022-08-07T17:22:02;26.00;46.70
41756;DHT22;27435;48.480;9.258;2022-08-07T17:30:41;25.80;48.10
41756;DHT22;27435;48.480;9.258;2022-08-07T17:33:15;25.70;47.70
41756;DHT22;27435;48.480;9.258;2022-08-07T17:40:48;25.50;47.90
41756;DHT22;27435;48.480;9.258;2022-08-07T17:43:30;25.40;48.20
41756;DHT22;27435;48.480;9.258;2022-08-07T17:46:20;25.20;48.40
41756;DHT22;27435;48.480;9.258;2022-08-07T17:49:18;25.10;48.50
41756;DHT22;27435;48.480;9.258;2022-08-07T17:52:09;25.00;48.80
41756;DHT22;27435;48.480;9.258;2022-08-07T17:54:49;25.10;48.40
41756;DHT22;27435;48.480;9.258;2022-08-07T17:57:49;25.00;48.80
41756;DHT22;27435;48.480;9.258;2022-08-07T18:00:20;25.00;49.10
41756;DHT22;27435;48.480;9.258;2022-08-07T18:03:00;25.10;48.60
41756;DHT22;27435;48.480;9.258;2022-08-07T18:08:13;24.80;49.00
41756;DHT22;27435;48.480;9.258;2022-08-07T18:13:55;24.50;50.20
41756;DHT22;27435;48.480;9.258;2022-08-07T18:16:35;24.50;50.10
41756;DHT22;27435;48.480;9.258;2022-08-07T18:19:45;24.40;50.20
41756;DHT22;27435;48.480;9.258;2022-08-07T18:24:55;24.40;49.70
41756;DHT22;27435;48.480;9.258;2022-08-07T18:30:12;24.20;49.20
41756;DHT22;27435;48.480;9.258;2022-08-07T18:46:21;23.90;49.80
41756;DHT22;27435;48.480;9.258;2022-08-07T18:49:02;23.70;50.10
41756;DHT22;27435;48.480;9.258;2022-08-07T18:51:57;23.50;50.50
41756;DHT22;27435;48.480;9.258;2022-08-07T19:00:05;22.90;53.20
41756;DHT22;27435;48.480;9.258;2022-08-07T19:05:26;22.80;51.90
41756;DHT22;27435;48.480;9.258;2022-08-07T19:08:05;22.60;52.60
41756;DHT22;27435;48.480;9.258;2022-08-07T19:10:46;22.40;53.10
41756;DHT22;27435;48.480;9.258;2022-08-07T19:13:43;22.30;54.40
41756;DHT22;27435;48.480;9.258;2022-08-07T19:24:08;22.00;50.70
41756;DHT22;27435;48.480;9.258;2022-08-07T19:26:37;22.00;50.50
41756;DHT22;27435;48.480;9.258;2022-08-07T19:29:07;22.10;50.20
41756;DHT22;27435;48.480;9.258;2022-08-07T19:31:36;22.00;50.30
41756;DHT22;27435;48.480;9.258;2022-08-07T19:34:11;21.90;50.00
41756;DHT22;27435;48.480;9.258;2022-08-07T19:36:43;21.80;51.00
41756;DHT22;27435;48.480;9.258;2022-08-07T19:39:12;21.60;51.00
41756;DHT22;27435;48.480;9.258;2022-08-07T19:41:43;21.60;50.90
41756;DHT22;27435;48.480;9.258;2022-08-07T19:44:12;21.50;50.90
41756;DHT22;27435;48.480;9.258;2022-08-07T19:46:46;21.50;51.30
41756;DHT22;27435;48.480;9.258;2022-08-07T19:49:21;21.40;51.90
41756;DHT22;27435;48.480;9.258;2022-08-07T19:51:49;21.40;52.30
41756;DHT22;27435;48.480;9.258;2022-08-07T19:54:17;21.30;51.50
41756;DHT22;27435;48.480;9.258;2022-08-07T19:56:45;21.30;52.00
41756;DHT22;27435;48.480;9.258;2022-08-07T19:59:27;21.40;50.80
41756;DHT22;27435;48.480;9.258;2022-08-07T20:01:56;21.30;51.50
41756;DHT22;27435;48.480;9.258;2022-08-07T20:04:32;21.20;51.90